createdAt,value
2018-03-30T00:00:54.958Z,11.81
2018-03-30T00:02:05.025Z,11.76
2018-03-30T00:03:15.155Z,11.76
2018-03-30T00:04:25.238Z,11.88
2018-03-30T00:05:35.050Z,11.86
2018-03-30T00:06:45.114Z,11.86
2018-03-30T00:07:54.929Z,11.94
2018-03-30T00:09:05.049Z,11.97
2018-03-30T00:10:14.842Z,11.94
2018-03-30T00:11:24.918Z,11.95
2018-03-30T00:12:34.994Z,11.95
2018-03-30T00:13:45.060Z,11.95
2018-03-30T00:14:55.185Z,11.97
2018-03-30T00:16:05.298Z,11.94
2018-03-30T00:17:15.356Z,11.88
2018-03-30T00:18:25.182Z,11.88
2018-03-30T00:19:35.061Z,11.89
2018-03-30T00:20:45.140Z,11.88
2018-03-30T00:21:55.222Z,11.94
2018-03-30T00:23:04.763Z,12
2018-03-30T00:24:14.846Z,11.89
2018-03-30T00:25:24.645Z,11.94
2018-03-30T00:26:34.717Z,12.01
2018-03-30T00:27:44.785Z,11.94
2018-03-30T00:28:54.603Z,11.89
2018-03-30T00:30:04.412Z,11.89
2018-03-30T00:31:14.212Z,11.97
2018-03-30T00:32:24.270Z,11.97
2018-03-30T00:33:34.105Z,11.95
2018-03-30T00:34:43.642Z,11.94
2018-03-30T00:35:53.713Z,11.91
2018-03-30T00:37:03.521Z,11.95
2018-03-30T00:38:13.347Z,11.95
2018-03-30T00:39:23.185Z,11.85
2018-03-30T00:40:33.250Z,11.79
2018-03-30T00:41:43.341Z,11.81
2018-03-30T00:42:53.128Z,11.79
2018-03-30T00:44:02.710Z,11.78
2018-03-30T00:45:12.797Z,11.75
2018-03-30T00:46:22.605Z,11.76
2018-03-30T00:47:32.411Z,11.76
2018-03-30T00:48:42.478Z,11.67
2018-03-30T00:49:52.545Z,11.81
2018-03-30T00:51:02.342Z,11.78
2018-03-30T00:52:11.882Z,11.73
2018-03-30T00:53:21.941Z,11.79
2018-03-30T00:54:32.006Z,11.76
2018-03-30T00:55:41.534Z,11.79
2018-03-30T00:56:51.612Z,11.79
2018-03-30T00:58:01.691Z,11.78
2018-03-30T00:59:11.774Z,11.75
2018-03-30T01:00:21.314Z,11.73
2018-03-30T01:01:31.158Z,11.82
2018-03-30T01:02:41.280Z,11.67
2018-03-30T01:03:51.355Z,11.82
2018-03-30T01:05:01.429Z,11.79
2018-03-30T01:06:11.528Z,11.79
2018-03-30T01:07:21.651Z,11.7
2018-03-30T01:08:31.719Z,11.66
2018-03-30T01:09:41.527Z,11.64
2018-03-30T01:10:51.367Z,11.7
2018-03-30T01:12:01.171Z,11.68
2018-03-30T01:13:11.244Z,11.67
2018-03-30T01:14:21.045Z,11.63
2018-03-30T01:15:30.862Z,11.61
2018-03-30T01:16:40.656Z,11.52
2018-03-30T01:17:50.724Z,11.51
2018-03-30T01:19:00.250Z,11.49
2018-03-30T01:20:10.318Z,11.59
2018-03-30T01:21:19.850Z,11.49
2018-03-30T01:22:29.901Z,11.57
2018-03-30T01:23:39.716Z,11.49
2018-03-30T01:24:49.794Z,11.46
2018-03-30T01:25:59.865Z,11.39
2018-03-30T01:27:09.920Z,11.41
2018-03-30T01:28:19.730Z,11.42
2018-03-30T01:29:29.781Z,11.38
2018-03-30T01:30:39.857Z,11.28
2018-03-30T01:31:49.383Z,11.24
2018-03-30T01:32:59.204Z,11.3
2018-03-30T01:34:08.719Z,11.24
2018-03-30T01:35:18.513Z,11.24
2018-03-30T01:36:28.366Z,11.2
2018-03-30T01:37:37.906Z,11.3
2018-03-30T01:38:47.462Z,11.21
2018-03-30T01:39:57.003Z,11.3
2018-03-30T01:41:07.062Z,11.24
2018-03-30T01:42:17.134Z,11.2
2018-03-30T01:43:27.212Z,11.24
2018-03-30T01:44:37.024Z,11.21
2018-03-30T01:45:47.085Z,11.21
2018-03-30T01:46:57.135Z,11.23
2018-03-30T01:48:06.947Z,11.2
2018-03-30T01:49:16.766Z,11.18
2018-03-30T01:50:26.815Z,11.1
2018-03-30T01:51:36.872Z,11.2
2018-03-30T01:52:46.939Z,11.12
2018-03-30T01:53:56.756Z,11.09
2018-03-30T01:55:06.577Z,11.08
2018-03-30T01:56:16.649Z,11
2018-03-30T01:57:26.707Z,11.09
2018-03-30T01:58:36.780Z,11.05
2018-03-30T01:59:46.392Z,11.08
2018-03-30T02:00:56.222Z,11.03
2018-03-30T02:02:06.302Z,11.08
2018-03-30T02:03:15.574Z,11.06
2018-03-30T02:04:25.656Z,11.02
2018-03-30T02:05:35.503Z,11.05
2018-03-30T02:06:45.546Z,11.06
2018-03-30T02:07:55.601Z,10.94
2018-03-30T02:09:05.677Z,11.02
2018-03-30T02:10:15.746Z,10.92
2018-03-30T02:11:25.896Z,10.87
2018-03-30T02:12:35.699Z,10.88
2018-03-30T02:13:45.780Z,10.79
2018-03-30T02:14:55.844Z,10.84
2018-03-30T02:16:05.945Z,10.83
2018-03-30T02:17:15.992Z,10.77
2018-03-30T02:18:25.788Z,10.69
2018-03-30T02:19:35.870Z,10.67
2018-03-30T02:20:45.937Z,10.66
2018-03-30T02:21:55.492Z,10.65
2018-03-30T02:23:05.028Z,10.61
2018-03-30T02:24:15.104Z,10.61
2018-03-30T02:25:25.178Z,10.63
2018-03-30T02:26:35.240Z,10.55
2018-03-30T02:27:45.042Z,10.49
2018-03-30T02:28:55.169Z,10.52
2018-03-30T02:30:05.231Z,10.52
2018-03-30T02:31:15.054Z,10.49
2018-03-30T02:32:25.148Z,10.55
2018-03-30T02:33:34.706Z,10.44
2018-03-30T02:34:44.841Z,10.41
2018-03-30T02:35:54.655Z,10.41
2018-03-30T02:37:04.738Z,10.42
2018-03-30T02:38:14.860Z,10.51
2018-03-30T02:39:24.934Z,10.52
2018-03-30T02:40:35.007Z,10.44
2018-03-30T02:41:44.820Z,10.44
2018-03-30T02:42:54.627Z,10.32
2018-03-30T02:44:04.446Z,10.41
2018-03-30T02:45:14.522Z,10.31
2018-03-30T02:46:24.724Z,10.29
2018-03-30T02:47:34.795Z,10.35
2018-03-30T02:48:44.877Z,10.35
2018-03-30T02:49:54.951Z,10.36
2018-03-30T02:51:05.012Z,10.36
2018-03-30T02:52:15.094Z,10.36
2018-03-30T02:53:25.175Z,10.42
2018-03-30T02:54:34.724Z,10.32
2018-03-30T02:55:44.556Z,10.36
2018-03-30T02:56:54.643Z,10.39
2018-03-30T02:58:04.186Z,10.39
2018-03-30T02:59:14.301Z,10.36
2018-03-30T03:00:24.392Z,10.38
2018-03-30T03:01:34.476Z,10.35
2018-03-30T03:02:44.546Z,10.41
2018-03-30T03:03:54.682Z,10.36
2018-03-30T03:05:04.502Z,10.35
2018-03-30T03:36:33.316Z,7.29
2018-03-30T03:37:43.110Z,7.21
2018-03-30T03:38:52.914Z,7.16
2018-03-30T03:40:02.973Z,7.19
2018-03-30T03:41:13.030Z,7.21
2018-03-30T03:42:22.601Z,7.31
2018-03-30T03:43:32.670Z,7.37
2018-03-30T03:44:42.742Z,7.45
2018-03-30T03:45:52.293Z,7.47
2018-03-30T03:47:02.087Z,7.64
2018-03-30T03:48:11.397Z,7.73
2018-03-30T03:49:21.452Z,7.82
2018-03-30T03:50:31.239Z,7.92
2018-03-30T03:51:41.316Z,8.09
2018-03-30T03:52:51.398Z,8.14
2018-03-30T03:54:01.256Z,8.17
2018-03-30T03:55:11.059Z,8.43
2018-03-30T03:56:20.849Z,8.5
2018-03-30T03:57:30.636Z,8.61
2018-03-30T03:58:40.191Z,8.61
2018-03-30T03:59:49.467Z,8.69
2018-03-30T04:00:58.754Z,8.76
2018-03-30T04:02:08.586Z,8.82
2018-03-30T04:03:18.128Z,8.79
2018-03-30T04:04:27.410Z,8.83
2018-03-30T04:05:37.466Z,8.79
2018-03-30T04:06:47.544Z,8.92
2018-03-30T04:07:57.599Z,8.97
2018-03-30T04:09:07.392Z,8.94
2018-03-30T04:10:16.951Z,8.95
2018-03-30T04:11:27.069Z,8.95
2018-03-30T04:12:36.873Z,8.9
2018-03-30T04:13:46.406Z,8.94
2018-03-30T04:14:56.232Z,9
2018-03-30T04:16:06.049Z,8.97
2018-03-30T04:17:16.125Z,9.01
2018-03-30T04:18:26.201Z,9.12
2018-03-30T04:19:35.983Z,9.11
2018-03-30T04:20:46.045Z,9.2
2018-03-30T04:21:56.128Z,9.16
2018-03-30T04:23:06.233Z,9.23
2018-03-30T04:24:15.495Z,9.26
2018-03-30T04:25:25.292Z,9.26
2018-03-30T04:26:35.122Z,9.42
2018-03-30T04:27:44.938Z,9.39
2018-03-30T04:28:54.794Z,9.37
2018-03-30T04:30:04.855Z,9.42
2018-03-30T04:31:14.651Z,9.47
2018-03-30T04:32:24.188Z,9.55
2018-03-30T04:33:33.463Z,9.48
2018-03-30T04:34:43.002Z,9.59
2018-03-30T04:35:53.058Z,9.5
2018-03-30T04:37:03.127Z,9.57
2018-03-30T04:38:12.671Z,9.59
2018-03-30T04:39:22.492Z,9.57
2018-03-30T04:40:32.348Z,9.62
2018-03-30T04:41:42.473Z,9.67
2018-03-30T04:42:52.539Z,9.62
2018-03-30T04:44:02.066Z,9.67
2018-03-30T04:45:11.880Z,9.62
2018-03-30T04:46:21.742Z,9.59
2018-03-30T04:47:31.558Z,9.52
2018-03-30T04:48:41.616Z,9.55
2018-03-30T04:49:51.458Z,9.64
2018-03-30T04:51:01.570Z,9.71
2018-03-30T04:52:11.648Z,9.84
2018-03-30T04:53:21.445Z,10.07
2018-03-30T04:54:30.979Z,10.26
2018-03-30T04:55:41.059Z,10.33
2018-03-30T04:56:50.890Z,10.33
2018-03-30T04:58:00.680Z,10.35
2018-03-30T04:59:10.474Z,10.52
2018-03-30T05:00:20.264Z,10.59
2018-03-30T05:01:29.549Z,10.69
2018-03-30T05:02:39.614Z,10.8
2018-03-30T05:03:49.429Z,11.05
2018-03-30T05:04:59.486Z,11.27
2018-03-30T05:06:09.566Z,11.27
2018-03-30T05:07:19.620Z,11.41
2018-03-30T05:08:29.416Z,11.52
2018-03-30T05:09:39.211Z,11.67
2018-03-30T05:10:49.306Z,11.6
2018-03-30T05:11:59.362Z,11.57
2018-03-30T05:13:08.902Z,11.49
2018-03-30T05:14:18.706Z,11.41
2018-03-30T05:15:28.773Z,11.2
2018-03-30T05:16:38.358Z,11.2
2018-03-30T05:17:48.154Z,11.1
2018-03-30T05:18:57.951Z,11.03
2018-03-30T05:20:08.030Z,10.94
2018-03-30T05:21:18.170Z,10.85
2018-03-30T05:22:27.704Z,10.84
2018-03-30T05:23:37.506Z,10.87
2018-03-30T05:24:47.561Z,10.8
2018-03-30T05:25:57.407Z,10.88
2018-03-30T05:27:07.454Z,10.83
2018-03-30T05:28:17.248Z,10.97
2018-03-30T05:29:27.053Z,11.08
2018-03-30T05:30:36.603Z,11.13
2018-03-30T05:31:46.397Z,11.26
2018-03-30T05:32:56.263Z,11.39
2018-03-30T05:34:06.128Z,11.41
2018-03-30T05:35:15.942Z,11.52
2018-03-30T05:36:26.004Z,11.66
2018-03-30T05:37:36.069Z,11.79
2018-03-30T05:38:45.661Z,11.86
2018-03-30T05:39:55.454Z,11.97
2018-03-30T05:41:04.719Z,12.07
2018-03-30T05:42:14.776Z,12.03
2018-03-30T05:43:24.580Z,11.98
2018-03-30T05:44:34.640Z,12.1
2018-03-30T05:45:44.693Z,12.13
2018-03-30T05:46:54.758Z,12.08
2018-03-30T05:48:04.295Z,12.13
2018-03-30T05:49:14.359Z,12.15
2018-03-30T05:50:24.160Z,12.13
2018-03-30T05:51:34.235Z,12.18
2018-03-30T05:52:43.769Z,12.15
2018-03-30T05:53:53.564Z,12.15
2018-03-30T05:55:03.098Z,12.18
2018-03-30T05:56:13.174Z,12.26
2018-03-30T05:57:23.286Z,12.25
2018-03-30T05:58:33.343Z,12.22
2018-03-30T05:59:43.149Z,12.25
2018-03-30T06:00:53.210Z,12.2
2018-03-30T06:02:03.331Z,12.34
2018-03-30T06:03:13.397Z,12.29
2018-03-30T06:04:22.936Z,12.34
2018-03-30T06:05:32.736Z,12.45
2018-03-30T06:06:42.823Z,12.55
2018-03-30T06:07:52.670Z,12.55
2018-03-30T06:09:02.718Z,12.58
2018-03-30T06:10:12.251Z,12.61
2018-03-30T06:11:22.063Z,12.76
2018-03-30T06:12:31.901Z,12.78
2018-03-30T06:13:41.169Z,12.84
2018-03-30T06:14:50.706Z,12.89
2018-03-30T06:16:00.776Z,12.83
2018-03-30T06:17:10.575Z,12.88
2018-03-30T06:18:20.656Z,12.83
2018-03-30T06:19:30.743Z,12.88
2018-03-30T06:20:40.789Z,12.83
2018-03-30T06:21:50.585Z,12.91
2018-03-30T06:22:59.837Z,12.91
2018-03-30T06:24:09.656Z,12.91
2018-03-30T06:25:19.461Z,13.01
2018-03-30T06:26:29.014Z,12.98
2018-03-30T06:27:38.796Z,13.09
2018-03-30T06:28:48.336Z,13.2
2018-03-30T06:29:58.157Z,13.32
2018-03-30T06:31:07.955Z,13.48
2018-03-30T06:32:17.545Z,13.57
2018-03-30T06:33:27.753Z,13.57
2018-03-30T06:34:37.566Z,13.5
2018-03-30T06:35:47.389Z,13.58
2018-03-30T06:36:57.189Z,13.62
2018-03-30T06:38:06.730Z,13.63
2018-03-30T06:39:16.803Z,13.69
2018-03-30T06:40:26.864Z,13.55
2018-03-30T06:41:36.923Z,13.39
2018-03-30T06:42:46.712Z,13.45
2018-03-30T06:43:56.518Z,13.37
2018-03-30T06:45:06.592Z,13.39
2018-03-30T06:46:16.698Z,13.44
2018-03-30T06:47:26.768Z,13.36
2018-03-30T06:48:36.580Z,13.45
2018-03-30T06:49:46.387Z,13.44
2018-03-30T06:50:56.564Z,13.5
2018-03-30T06:52:06.697Z,13.48
2018-03-30T06:53:16.775Z,13.53
2018-03-30T06:54:26.589Z,13.53
2018-03-30T06:55:36.650Z,13.57
2018-03-30T06:56:46.731Z,13.68
2018-03-30T06:57:56.577Z,13.55
2018-03-30T06:59:06.387Z,13.65
2018-03-30T07:00:15.938Z,13.75
2018-03-30T07:01:26.051Z,13.9
2018-03-30T07:02:35.844Z,13.93
2018-03-30T07:03:45.666Z,14.12
2018-03-30T07:04:55.779Z,14.24
2018-03-30T07:06:05.669Z,14.48
2018-03-30T07:07:15.480Z,14.57
2018-03-30T07:08:25.546Z,14.74
2018-03-30T07:09:35.095Z,15
2018-03-30T07:10:44.894Z,15.15
2018-03-30T07:11:54.700Z,15.34
2018-03-30T07:13:04.782Z,15.34
2018-03-30T07:14:14.582Z,15.45
2018-03-30T07:15:24.692Z,15.53
2018-03-30T07:16:34.776Z,15.65
2018-03-30T07:17:44.848Z,15.77
2018-03-30T07:18:54.157Z,15.81
2018-03-30T07:20:03.719Z,15.99
2018-03-30T07:21:13.256Z,16.14
2018-03-30T07:22:22.792Z,16.22
2018-03-30T07:23:32.612Z,16.36
2018-03-30T07:24:42.700Z,16.57
2018-03-30T07:25:51.969Z,16.81
2018-03-30T07:27:01.523Z,17
2018-03-30T07:28:11.592Z,17.13
2018-03-30T07:29:21.708Z,17.2
2018-03-30T07:30:31.525Z,17.4
2018-03-30T07:31:41.589Z,17.55
2018-03-30T07:32:51.727Z,17.63
2018-03-30T07:34:01.806Z,17.57
2018-03-30T07:35:11.623Z,17.43
2018-03-30T07:36:20.913Z,17.3
2018-03-30T07:37:30.983Z,17.27
2018-03-30T07:38:40.786Z,17.21
2018-03-30T07:39:50.329Z,17.05
2018-03-30T07:41:00.433Z,17
2018-03-30T07:42:09.986Z,16.82
2018-03-30T07:43:19.825Z,16.72
2018-03-30T07:44:29.906Z,16.55
2018-03-30T07:45:39.966Z,16.48
2018-03-30T07:46:49.788Z,16.44
2018-03-30T07:47:59.658Z,16.48
2018-03-30T07:49:09.741Z,16.45
2018-03-30T07:50:19.544Z,16.42
2018-03-30T07:51:29.622Z,16.44
2018-03-30T07:52:39.711Z,16.59
2018-03-30T07:53:49.500Z,16.67
2018-03-30T07:54:59.290Z,16.9
2018-03-30T07:56:09.077Z,16.91
2018-03-30T07:57:19.145Z,16.92
2018-03-30T07:58:28.977Z,16.91
2018-03-30T07:59:39.049Z,16.97
2018-03-30T08:00:49.171Z,16.85
2018-03-30T08:01:58.981Z,16.8
2018-03-30T08:03:08.532Z,16.85
2018-03-30T08:04:18.354Z,17
2018-03-30T08:05:28.196Z,16.88
2018-03-30T08:06:38.003Z,16.76
2018-03-30T08:07:47.809Z,16.9
2018-03-30T08:08:57.635Z,16.91
2018-03-30T08:10:07.793Z,17.07
2018-03-30T08:11:17.851Z,17.25
2018-03-30T08:12:27.930Z,17.17
2018-03-30T08:13:38.005Z,17.2
2018-03-30T08:14:47.816Z,17.21
2018-03-30T08:15:58.207Z,17.25
2018-03-30T08:17:08.018Z,17.27
2018-03-30T08:18:18.101Z,17.24
2018-03-30T08:19:27.979Z,17.24
2018-03-30T08:20:37.777Z,17.1
2018-03-30T08:21:47.870Z,17.15
2018-03-30T08:22:57.947Z,17.07
2018-03-30T08:24:08.053Z,17.13
2018-03-30T08:25:17.866Z,17.24
2018-03-30T08:26:27.942Z,17.09
2018-03-30T08:27:37.765Z,17.21
2018-03-30T08:28:47.846Z,17.17
2018-03-30T08:29:57.662Z,17.27
2018-03-30T08:31:07.486Z,17.27
2018-03-30T08:32:17.587Z,17.35
2018-03-30T08:33:27.128Z,17.35
2018-03-30T08:34:37.216Z,17.32
2018-03-30T08:35:46.851Z,17.36
2018-03-30T08:36:56.640Z,17.32
2018-03-30T08:38:06.711Z,17.39
2018-03-30T08:39:16.772Z,17.45
2018-03-30T08:40:26.602Z,17.69
2018-03-30T08:41:36.670Z,17.69
2018-03-30T08:42:46.477Z,17.52
2018-03-30T08:43:56.536Z,17.65
2018-03-30T08:45:06.610Z,17.66
2018-03-30T08:46:16.693Z,17.5
2018-03-30T08:47:26.766Z,17.24
2018-03-30T08:48:36.561Z,16.82
2018-03-30T08:49:46.626Z,16.37
2018-03-30T08:50:56.694Z,16.48
2018-03-30T08:52:06.529Z,16.37
2018-03-30T08:53:16.590Z,16.48
2018-03-30T08:54:26.409Z,16.73
2018-03-30T08:55:36.501Z,16.73
2018-03-30T08:56:46.297Z,16.81
2018-03-30T08:57:56.109Z,17.09
2018-03-30T08:59:06.217Z,17.09
2018-03-30T09:00:15.748Z,17.06
2018-03-30T09:01:25.586Z,16.88
2018-03-30T09:02:35.439Z,16.9
2018-03-30T09:03:45.252Z,16.88
2018-03-30T09:04:55.419Z,16.73
2018-03-30T09:06:04.971Z,16.59
2018-03-30T09:07:15.094Z,16.67
2018-03-30T09:08:24.912Z,16.73
2018-03-30T09:09:34.206Z,16.77
2018-03-30T09:10:43.762Z,16.76
2018-03-30T09:11:53.568Z,16.66
2018-03-30T09:13:03.352Z,16.63
2018-03-30T09:14:12.896Z,16.72
2018-03-30T09:15:22.965Z,16.8
2018-03-30T09:16:32.774Z,16.95
2018-03-30T09:17:42.834Z,17.1
2018-03-30T09:18:52.902Z,17.39
2018-03-30T09:20:02.993Z,17.5
2018-03-30T09:21:13.075Z,17.8
2018-03-30T09:22:23.181Z,17.83
2018-03-30T09:23:32.732Z,17.94
2018-03-30T09:24:42.301Z,18.08
2018-03-30T09:25:52.107Z,18.23
2018-03-30T09:27:01.636Z,18.2
2018-03-30T09:28:11.793Z,18.36
2018-03-30T09:29:21.876Z,18.57
2018-03-30T09:30:31.403Z,18.74
2018-03-30T09:31:41.481Z,18.89
2018-03-30T09:32:51.042Z,19.09
2018-03-30T09:34:00.884Z,19.1
2018-03-30T09:35:10.946Z,18.97
2018-03-30T09:36:20.757Z,18.91
2018-03-30T09:37:30.829Z,18.86
2018-03-30T09:38:40.374Z,18.78
2018-03-30T09:39:50.453Z,18.65
2018-03-30T09:41:00.543Z,18.75
2018-03-30T09:42:10.626Z,18.9
2018-03-30T09:43:20.446Z,18.84
2018-03-30T09:44:30.245Z,18.78
2018-03-30T09:45:40.082Z,18.61
2018-03-30T09:46:49.933Z,18.35
2018-03-30T09:47:59.489Z,18.29
2018-03-30T09:49:09.296Z,18.59
2018-03-30T09:50:19.387Z,18.96
2018-03-30T09:51:29.460Z,19.17
2018-03-30T09:52:39.562Z,19.19
2018-03-30T09:53:49.114Z,19.19
2018-03-30T09:54:59.184Z,18.96
2018-03-30T09:56:09.257Z,18.82
2018-03-30T09:57:19.323Z,18.75
2018-03-30T09:58:29.595Z,18.87
2018-03-30T09:59:39.410Z,18.72
2018-03-30T10:00:49.495Z,18.57
2018-03-30T10:01:59.589Z,18.34
2018-03-30T10:03:09.404Z,18.16
2018-03-30T10:04:19.508Z,18.31
2018-03-30T10:05:29.053Z,18.5
2018-03-30T10:06:39.228Z,18.47
2018-03-30T10:07:49.312Z,18.71
2018-03-30T10:08:59.388Z,18.9
2018-03-30T10:10:09.464Z,19.37
2018-03-30T10:11:19.029Z,19.61
2018-03-30T10:12:28.837Z,19.95
2018-03-30T10:13:38.912Z,19.75
2018-03-30T10:14:48.970Z,19.43
2018-03-30T10:15:58.246Z,19.23
2018-03-30T10:17:08.346Z,19.09
2018-03-30T10:18:18.433Z,19.16
2018-03-30T10:19:28.236Z,18.78
2018-03-30T10:20:38.048Z,18.47
2018-03-30T10:21:47.332Z,18.54
2018-03-30T10:22:57.140Z,18.51
2018-03-30T10:24:07.236Z,18.31
2018-03-30T10:25:17.050Z,18.29
2018-03-30T10:26:27.118Z,18.16
2018-03-30T10:27:36.924Z,18.49
2018-03-30T10:28:47.014Z,18.44
2018-03-30T10:29:56.307Z,18.39
2018-03-30T10:31:06.154Z,18.42
2018-03-30T10:32:15.960Z,18.47
2018-03-30T10:33:26.083Z,18.69
2018-03-30T10:34:36.165Z,18.84
2018-03-30T10:35:45.996Z,19.06
2018-03-30T10:36:55.790Z,19.4
2018-03-30T10:38:05.586Z,19.12
2018-03-30T10:39:15.660Z,18.9
2018-03-30T10:40:25.463Z,18.74
2018-03-30T10:41:35.275Z,18.96
2018-03-30T10:42:44.822Z,18.81
2018-03-30T10:43:54.637Z,18.5
2018-03-30T10:45:04.744Z,18.14
2018-03-30T10:46:14.820Z,17.8
2018-03-30T10:47:24.360Z,17.76
2018-03-30T10:48:34.199Z,18.01
2018-03-30T10:49:44.260Z,18.17
2018-03-30T10:50:54.338Z,18.29
2018-03-30T10:52:03.633Z,18.5
2018-03-30T10:53:13.741Z,18.5
2018-03-30T10:54:23.804Z,18.26
2018-03-30T10:55:33.882Z,18.01
2018-03-30T10:56:43.713Z,17.63
2018-03-30T10:57:53.964Z,17.46
2018-03-30T10:59:03.796Z,17.35
2018-03-30T11:00:13.077Z,17.22
2018-03-30T11:01:22.384Z,17.2
2018-03-30T11:02:31.944Z,17.35
2018-03-30T11:03:41.748Z,17.73
2018-03-30T11:04:51.841Z,18.2
2018-03-30T11:06:01.386Z,18.54
2018-03-30T11:07:10.968Z,18.93
2018-03-30T11:08:20.517Z,19.15
2018-03-30T11:09:30.065Z,19.23
2018-03-30T11:10:39.872Z,19.24
2018-03-30T11:11:49.930Z,19.07
2018-03-30T11:12:59.492Z,18.78
2018-03-30T11:14:09.553Z,18.89
2018-03-30T11:15:19.366Z,19.32
2018-03-30T11:16:29.183Z,19.74
2018-03-30T11:17:39.005Z,19.67
2018-03-30T11:18:49.063Z,19.4
2018-03-30T11:19:58.606Z,18.84
2018-03-30T11:21:08.480Z,18.78
2018-03-30T11:22:18.291Z,18.79
2018-03-30T11:23:28.114Z,18.93
2018-03-30T11:24:38.281Z,19.19
2018-03-30T11:25:48.488Z,19.4
2018-03-30T11:26:58.086Z,19.61
2018-03-30T11:28:08.162Z,19.4
2018-03-30T11:29:17.980Z,19.16
2018-03-30T11:30:28.062Z,19.07
2018-03-30T11:31:37.878Z,18.84
2018-03-30T11:32:47.735Z,18.66
2018-03-30T11:33:57.568Z,18.54
2018-03-30T11:35:07.686Z,18.76
2018-03-30T11:36:17.781Z,18.84
2018-03-30T11:37:27.589Z,18.93
2018-03-30T11:38:37.641Z,18.76
2018-03-30T11:39:47.455Z,18.51
2018-03-30T11:40:57.555Z,18.19
2018-03-30T11:42:07.641Z,17.84
2018-03-30T11:43:17.700Z,17.57
2018-03-30T11:44:27.599Z,17.35
2018-03-30T11:45:37.410Z,17.27
2018-03-30T11:46:47.224Z,17.22
2018-03-30T11:47:56.775Z,17.12
2018-03-30T11:49:06.898Z,17.35
2018-03-30T11:50:16.693Z,17.46
2018-03-30T11:51:26.524Z,17.5
2018-03-30T11:52:36.587Z,17.79
2018-03-30T11:53:46.413Z,18.02
2018-03-30T11:54:56.480Z,18.03
2018-03-30T11:56:06.624Z,18.13
2018-03-30T11:57:16.517Z,18.23
2018-03-30T11:58:26.611Z,18.23
2018-03-30T11:59:36.444Z,18.51
2018-03-30T12:00:46.527Z,18.59
2018-03-30T12:01:56.402Z,18.78
2018-03-30T12:03:06.467Z,18.89
2018-03-30T12:04:16.544Z,18.97
2018-03-30T12:05:26.595Z,19.23
2018-03-30T12:06:36.668Z,19.3
2018-03-30T12:07:46.478Z,19.32
2018-03-30T12:08:56.397Z,19.32
2018-03-30T12:10:06.467Z,19.32
2018-03-30T12:11:16.549Z,19.37
2018-03-30T12:12:26.345Z,19.63
2018-03-30T12:13:36.444Z,20.2
2018-03-30T12:14:45.720Z,20.66
2018-03-30T12:15:55.550Z,20.57
2018-03-30T12:17:05.613Z,20.49
2018-03-30T12:18:15.686Z,20.08
2018-03-30T12:19:25.807Z,19.79
2018-03-30T12:20:35.895Z,19.4
2018-03-30T12:21:45.970Z,19.09
2018-03-30T12:22:56.040Z,18.89
2018-03-30T12:24:06.131Z,18.6
2018-03-30T12:25:16.250Z,18.5
2018-03-30T12:26:26.334Z,18.44
2018-03-30T12:27:36.420Z,18.53
2018-03-30T12:28:46.639Z,18.59
2018-03-30T12:29:56.463Z,18.68
2018-03-30T12:31:06.582Z,18.72
2018-03-30T12:32:16.657Z,18.66
2018-03-30T12:33:26.736Z,18.42
2018-03-30T12:34:36.849Z,18.35
2018-03-30T12:35:46.950Z,18.13
2018-03-30T12:36:57.023Z,17.74
2018-03-30T12:38:07.103Z,17.57
2018-03-30T12:39:17.192Z,17.46
2018-03-30T12:40:27.276Z,17.46
2018-03-30T12:41:36.813Z,17.58
2018-03-30T12:42:46.941Z,17.92
2018-03-30T12:43:57.024Z,18.23
2018-03-30T12:45:07.120Z,18.23
2018-03-30T12:46:17.056Z,18.17
2018-03-30T12:47:26.979Z,18.16
2018-03-30T12:48:37.080Z,18.13
2018-03-30T12:49:46.638Z,18.71
2018-03-30T12:50:56.449Z,19.25
2018-03-30T12:52:06.547Z,19.78
2018-03-30T12:53:16.653Z,19.78
2018-03-30T12:54:26.736Z,19.35
2018-03-30T12:55:36.806Z,18.97
2018-03-30T12:56:46.636Z,18.78
2018-03-30T12:57:56.183Z,18.59
2018-03-30T12:59:05.998Z,18.51
2018-03-30T13:00:15.615Z,18.27
2018-03-30T13:01:25.703Z,18.2
2018-03-30T13:02:35.799Z,18.06
2018-03-30T13:03:45.619Z,18.03
2018-03-30T13:04:55.705Z,18.02
2018-03-30T13:06:05.801Z,17.94
2018-03-30T13:07:16.050Z,17.86
2018-03-30T13:08:26.113Z,17.8
2018-03-30T13:09:35.944Z,17.92
2018-03-30T13:10:46.009Z,18.06
2018-03-30T13:11:56.085Z,18.23
2018-03-30T13:13:06.178Z,18.5
2018-03-30T13:14:16.304Z,19.15
2018-03-30T13:15:26.479Z,19.24
2018-03-30T13:16:36.313Z,19.28
2018-03-30T13:17:46.393Z,19.24
2018-03-30T13:18:56.211Z,19.15
2018-03-30T13:20:06.336Z,18.9
2018-03-30T13:21:16.233Z,18.93
2018-03-30T13:22:26.484Z,18.79
2018-03-30T13:23:36.302Z,18.76
2018-03-30T13:24:46.147Z,18.79
2018-03-30T13:25:56.217Z,18.53
2018-03-30T13:27:06.299Z,18.38
2018-03-30T13:28:16.374Z,18.16
2018-03-30T13:29:26.465Z,18.2
2018-03-30T13:30:36.269Z,18.2
2018-03-30T13:31:46.339Z,18.11
2018-03-30T13:32:56.411Z,17.76
2018-03-30T13:34:06.493Z,17.68
2018-03-30T13:35:16.315Z,17.66
2018-03-30T13:36:26.458Z,17.71
2018-03-30T13:37:36.583Z,17.52
2018-03-30T13:38:46.422Z,17.65
2018-03-30T13:39:56.524Z,17.76
2018-03-30T13:41:06.058Z,17.68
2018-03-30T13:42:16.159Z,17.63
2018-03-30T13:43:26.234Z,17.65
2018-03-30T13:44:36.430Z,17.76
2018-03-30T13:45:46.500Z,18.02
2018-03-30T13:46:56.306Z,18.13
2018-03-30T13:48:05.861Z,18.49
2018-03-30T13:49:16.049Z,18.69
2018-03-30T13:50:25.351Z,18.81
2018-03-30T13:51:35.422Z,19.19
2018-03-30T13:52:45.512Z,19.15
2018-03-30T13:53:55.399Z,18.93
2018-03-30T13:55:05.209Z,18.91
2018-03-30T13:56:15.052Z,18.74
2018-03-30T13:57:24.594Z,18.9
2018-03-30T13:58:34.677Z,19.05
2018-03-30T13:59:44.765Z,19.37
2018-03-30T14:00:54.403Z,19.49
2018-03-30T14:02:04.481Z,19.75
2018-03-30T14:03:14.314Z,19.31
2018-03-30T14:04:23.900Z,19.34
2018-03-30T14:05:33.482Z,19.1
2018-03-30T14:06:43.612Z,19.16
2018-03-30T14:07:53.445Z,19.32
2018-03-30T14:09:03.523Z,19.68
2018-03-30T14:10:13.066Z,20
2018-03-30T14:11:22.883Z,20.32
2018-03-30T14:12:32.705Z,20.01
2018-03-30T14:13:42.816Z,19.85
2018-03-30T14:14:52.891Z,20.07
2018-03-30T14:16:02.981Z,20.1
2018-03-30T14:17:12.542Z,20.15
2018-03-30T14:18:22.363Z,20.07
2018-03-30T14:19:32.173Z,20.12
2018-03-30T14:20:42.005Z,20.46
2018-03-30T14:21:52.093Z,20.58
2018-03-30T14:23:01.645Z,20.4
2018-03-30T14:24:11.437Z,20.2
2018-03-30T14:25:21.241Z,20.01
2018-03-30T14:26:31.405Z,19.98
2018-03-30T14:27:41.583Z,19.98
2018-03-30T14:28:51.658Z,20.15
2018-03-30T14:30:01.727Z,20
2018-03-30T14:31:11.809Z,19.98
2018-03-30T14:32:21.881Z,19.78
2018-03-30T14:33:31.767Z,19.72
2018-03-30T14:34:41.890Z,19.61
2018-03-30T14:35:51.780Z,19.61
2018-03-30T14:37:01.582Z,19.8
2018-03-30T14:38:11.664Z,19.74
2018-03-30T14:39:21.763Z,19.64
2018-03-30T14:40:31.849Z,19.38
2018-03-30T14:41:41.646Z,19.19
2018-03-30T14:42:51.235Z,18.91
2018-03-30T14:44:01.068Z,18.78
2018-03-30T14:45:11.170Z,18.61
2018-03-30T14:46:21.248Z,18.61
2018-03-30T14:47:31.358Z,18.5
2018-03-30T14:48:41.168Z,18.45
2018-03-30T14:49:50.985Z,18.49
2018-03-30T14:51:00.825Z,18.54
2018-03-30T14:52:10.945Z,18.76
2018-03-30T14:53:20.820Z,18.84
2018-03-30T14:54:30.649Z,18.76
2018-03-30T14:55:40.486Z,18.54
2018-03-30T14:56:50.323Z,18.61
2018-03-30T14:58:00.166Z,18.81
2018-03-30T14:59:10.262Z,19.12
2018-03-30T15:00:20.075Z,19.42
2018-03-30T15:01:30.167Z,19.63
2018-03-30T15:02:40.259Z,19.82
2018-03-30T15:03:50.345Z,20.07
2018-03-30T15:05:00.161Z,20.2
2018-03-30T15:06:09.882Z,20.02
2018-03-30T15:07:19.693Z,19.78
2018-03-30T15:08:29.508Z,19.32
2018-03-30T15:09:39.662Z,19.09
2018-03-30T15:10:49.797Z,18.97
2018-03-30T15:11:59.928Z,18.78
2018-03-30T15:13:10.251Z,18.5
2018-03-30T15:14:20.433Z,18.32
2018-03-30T15:15:30.542Z,18.24
2018-03-30T15:16:40.674Z,18.14
2018-03-30T15:17:50.785Z,18.14
2018-03-30T15:19:00.935Z,18.14
2018-03-30T15:20:11.062Z,18.14
2018-03-30T15:21:21.333Z,18.19
2018-03-30T15:22:30.984Z,18.06
2018-03-30T15:23:41.067Z,18.03
2018-03-30T15:24:50.940Z,17.98
2018-03-30T15:26:01.038Z,17.98
2018-03-30T15:27:11.160Z,17.86
2018-03-30T15:28:20.993Z,17.8
2018-03-30T15:29:31.105Z,17.65
2018-03-30T15:30:40.982Z,17.58
2018-03-30T15:31:50.696Z,17.52
2018-03-30T15:33:00.062Z,17.6
2018-03-30T15:34:10.257Z,17.46
2018-03-30T15:35:20.091Z,17.47
2018-03-30T15:36:29.982Z,17.45
2018-03-30T15:37:39.824Z,17.38